Pierre, South Dakota
Current Conditions -  °F | °C
As of 2:53 AM on Wednesday 28 Jan 2015 (Local Time) from KPIR Reporting Station
Clear Clear  
Wind Chill: 31°   Ceiling: Unl
Heat Index: 31°   Visibility: 10mi
Dew Point: 30°   Wind: 3mph
Humidity: 96%   Direction: 90°E
Pressure: 29.71"   Gusts: NA
Location:  44.37°N, 100.35°W
Report Text: KPIR 280853Z AUTO 09003KT 10SM CLR M01/M01 A2971 RMK AO2 SLP068 T10061011 56019
Loading
Personal Weather Stations






























Interactive Weather Map New forecast layout! Learn more

10-Day Weather Forecast

Advertisements
Track Severe Weather on mobile